Maher, Colorado
Current Conditions -  °F | °C
As of 11:53 PM on Thursday 18 Dec 2014 (Local Time) from KMTJ Reporting Station
Overcast Overcast  
Wind Chill: 32°   Ceiling: 3000
Heat Index: 32°   Visibility: 10mi
Dew Point: 30°   Wind: 3mph
Humidity: 92%   Direction: 170°S
Pressure: 30.21"   Gusts: NA
Location:  38.53°N, 107.55°W
Report Text: KMTJ 190653Z AUTO 17003KT 10SM BKN030 OVC075 00/M01 A3021 RMK AO2 SLP228 T00001011 400330000
Loading
Personal Weather Stations






























Interactive Weather Map New forecast layout! Learn more

10-Day Weather Forecast

Advertisements
Track Severe Weather on mobile